EHKD

De Kooy Airfield

Airport
ICAO code
EHKD
IATA Code
DHR
Summary
ICAO Region
EUR
ICAO Territory
Location

Den Helder, Noord-Holland

Serving
De Kooy
Elevation
3 ft
Coordinates
52° 55' 24" N , 4° 46' 50" E
KCC
Metar
Observation
EHKD 241625Z AUTO 03011KT 350V060 9999 SCT027 BKN031 BKN037 15/10 Q1015 BLU NOSIG
Station
De Kooy
Date/Time
2022-09-24 16:25:00
Wind direction
30°
Wind speed
11 kts
Lowest cloud amount
scattered clouds
Temperature
15°C
Dew point
10°C
Humidity
72%
QNH
1015 hPa
Weather condition
n/a

De Kooy Airfield is an airfield 2.9 nm south of Den Helder, the Netherlands, named after the nearby hamlet De Kooy. It serves as both a civilian airport under the name Den Helder Airport and a naval airport under the name Maritiem Vliegkamp De Kooy.

Climatology

Temperate Marine climate/Oceanic climate (Köppen climate classification Cfb). Moderately cool summer and comparatively warm winter with a temperature range of only 14°C. Prevailing south-westerly winds from the Atlantic Ocean.

Runways

Designator Length Width Surface Rops
4/22 1275 30 CON No/No

Airport map

Aerial View

SKYbrary Partners:

Safety knowledge contributed by: